createdAt,value
2023-03-02T00:00:52.619Z,23.23
2023-03-02T00:03:19.199Z,19.63
2023-03-02T00:05:47.303Z,20.23
2023-03-02T00:08:18.152Z,18.03
2023-03-02T00:10:45.080Z,21.77
2023-03-02T00:13:13.390Z,21.33
2023-03-02T00:15:40.076Z,18.27
2023-03-02T00:18:06.664Z,20.23
2023-03-02T00:20:34.853Z,20.73
2023-03-02T00:23:01.589Z,20.33
2023-03-02T00:25:28.890Z,24.13
2023-03-02T00:27:55.491Z,18.40
2023-03-02T00:30:22.146Z,21.20
2023-03-02T00:32:48.748Z,20.30
2023-03-02T00:35:15.573Z,19.37
2023-03-02T00:37:42.212Z,18.57
2023-03-02T00:40:09.797Z,20.53
2023-03-02T00:42:37.683Z,17.87
2023-03-02T00:47:44.107Z,19.53
2023-03-02T00:50:10.981Z,19.50
2023-03-02T00:52:37.646Z,24.23
2023-03-02T00:55:04.531Z,19.27
2023-03-02T00:57:31.178Z,21.03
2023-03-02T00:59:58.065Z,22.70
2023-03-02T01:02:24.672Z,22.00
2023-03-02T01:04:53.264Z,19.10
2023-03-02T01:07:26.316Z,18.43
2023-03-02T01:09:52.960Z,22.63
2023-03-02T01:12:19.955Z,21.87
2023-03-02T01:14:49.024Z,21.00
2023-03-02T01:17:15.773Z,19.83
2023-03-02T01:19:42.587Z,19.80
2023-03-02T01:22:09.869Z,19.77
2023-03-02T01:24:36.471Z,20.23
2023-03-02T01:27:03.091Z,19.30
2023-03-02T01:29:29.658Z,21.77
2023-03-02T01:31:56.339Z,22.33
2023-03-02T01:34:23.134Z,20.37
2023-03-02T01:36:49.715Z,19.60
2023-03-02T01:39:16.385Z,19.30
2023-03-02T01:41:46.609Z,22.03
2023-03-02T01:44:37.491Z,20.87
2023-03-02T01:47:26.933Z,26.50
2023-03-02T01:52:40.351Z,21.50
2023-03-02T01:55:11.273Z,22.93
2023-03-02T01:57:43.926Z,23.17
2023-03-02T02:00:19.518Z,22.23
2023-03-02T02:02:46.786Z,22.90
2023-03-02T02:05:19.342Z,20.77
2023-03-02T02:07:46.154Z,22.03
2023-03-02T02:10:13.413Z,20.53
2023-03-02T02:12:39.994Z,20.37
2023-03-02T02:15:07.171Z,23.53
2023-03-02T02:17:34.297Z,26.37
2023-03-02T02:20:25.369Z,20.23
2023-03-02T02:22:58.067Z,22.40
2023-03-02T02:25:30.391Z,27.97
2023-03-02T02:27:57.369Z,24.47
2023-03-02T02:33:05.638Z,24.93
2023-03-02T02:35:34.918Z,23.37
2023-03-02T02:38:07.804Z,20.90
2023-03-02T02:40:50.434Z,23.87
2023-03-02T02:43:19.685Z,21.13
2023-03-02T02:45:48.879Z,23.03
2023-03-02T02:48:18.253Z,21.50
2023-03-02T02:50:46.461Z,23.77
2023-03-02T02:53:26.044Z,22.77
2023-03-02T02:55:57.147Z,22.87
2023-03-02T02:58:41.826Z,21.80
2023-03-02T03:01:08.784Z,20.57
2023-03-02T03:03:39.277Z,25.30
2023-03-02T03:06:13.068Z,22.27
2023-03-02T03:08:45.769Z,21.30
2023-03-02T03:11:24.096Z,21.70
2023-03-02T03:14:10.306Z,22.53
2023-03-02T03:16:39.160Z,25.20
2023-03-02T03:19:12.133Z,24.57
2023-03-02T03:21:38.682Z,23.60
2023-03-02T03:24:05.672Z,22.50
2023-03-02T03:26:32.493Z,26.53
2023-03-02T03:28:59.443Z,25.90
2023-03-02T03:31:27.950Z,24.23
2023-03-02T03:33:56.144Z,23.47
2023-03-02T03:36:22.964Z,22.87
2023-03-02T03:38:49.619Z,25.37
2023-03-02T03:41:16.312Z,26.13
2023-03-02T03:43:42.990Z,22.23
2023-03-02T03:46:09.592Z,23.57
2023-03-02T03:48:36.262Z,23.23
2023-03-02T03:51:02.917Z,22.57
2023-03-02T03:53:29.617Z,23.30
2023-03-02T03:58:35.514Z,22.73
2023-03-02T04:01:02.066Z,25.30
2023-03-02T04:03:28.979Z,22.47
2023-03-02T04:05:55.753Z,23.20
2023-03-02T04:08:22.518Z,25.20
2023-03-02T04:10:49.074Z,25.20
2023-03-02T04:13:15.992Z,24.23
2023-03-02T04:15:44.406Z,24.60
2023-03-02T04:18:12.510Z,24.03
2023-03-02T04:20:39.115Z,23.20
2023-03-02T04:23:05.717Z,24.00
2023-03-02T04:25:32.284Z,24.43
2023-03-02T04:27:59.305Z,20.77
2023-03-02T04:32:58.158Z,23.60
2023-03-02T04:35:25.584Z,26.67
2023-03-02T04:37:52.624Z,23.63
2023-03-02T04:40:19.333Z,23.87
2023-03-02T04:42:46.103Z,22.63
2023-03-02T04:45:13.528Z,25.80
2023-03-02T04:47:40.615Z,23.03
2023-03-02T04:50:08.755Z,22.43
2023-03-02T04:52:35.378Z,23.87
2023-03-02T04:55:02.159Z,23.00
2023-03-02T04:57:28.705Z,23.13
2023-03-02T04:59:55.468Z,26.77
2023-03-02T05:02:22.138Z,19.73
2023-03-02T05:04:49.047Z,24.13
2023-03-02T05:07:15.662Z,24.63
2023-03-02T05:09:42.447Z,28.40
2023-03-02T05:12:08.983Z,25.13
2023-03-02T05:14:35.634Z,23.00
2023-03-02T05:17:02.291Z,23.27
2023-03-02T05:19:28.990Z,24.70
2023-03-02T05:21:56.617Z,22.47
2023-03-02T05:24:23.139Z,23.03
2023-03-02T05:26:49.820Z,20.27
2023-03-02T05:31:48.307Z,23.40
2023-03-02T05:34:16.952Z,25.77
2023-03-02T05:36:45.332Z,28.53
2023-03-02T05:39:12.605Z,25.13
2023-03-02T05:41:39.761Z,25.93
2023-03-02T05:44:09.605Z,29.73
2023-03-02T05:46:36.826Z,23.67
2023-03-02T05:49:03.629Z,23.03
2023-03-02T05:51:30.228Z,23.70
2023-03-02T05:53:56.881Z,26.23
2023-03-02T05:56:23.528Z,25.03
2023-03-02T05:58:50.052Z,25.07
2023-03-02T06:01:16.643Z,26.90
2023-03-02T06:03:43.543Z,24.03
2023-03-02T06:06:14.182Z,24.23
2023-03-02T06:08:42.215Z,27.83
2023-03-02T06:11:09.269Z,21.33
2023-03-02T06:13:36.293Z,22.30
2023-03-02T06:16:03.472Z,26.23
2023-03-02T06:18:30.166Z,23.07
2023-03-02T06:20:56.871Z,24.13
2023-03-02T06:23:23.550Z,32.43
2023-03-02T06:25:50.178Z,35.33
2023-03-02T06:28:19.908Z,29.37
2023-03-02T06:30:48.813Z,83.53
2023-03-02T06:33:21.198Z,26.83
2023-03-02T06:35:48.239Z,33.87
2023-03-02T06:38:15.240Z,25.10
2023-03-02T06:43:19.310Z,27.17
2023-03-02T06:48:19.197Z,24.33
2023-03-02T06:50:45.798Z,31.50
2023-03-02T06:53:12.331Z,25.70
2023-03-02T06:55:38.974Z,25.37
2023-03-02T06:58:05.546Z,29.73
2023-03-02T07:03:11.025Z,34.20
2023-03-02T07:05:37.777Z,27.10
2023-03-02T07:08:04.763Z,31.13
2023-03-02T07:10:31.385Z,35.20
2023-03-02T07:12:57.977Z,31.80
2023-03-02T07:15:24.849Z,47.83
2023-03-02T07:17:51.491Z,27.53
2023-03-02T07:20:18.576Z,30.87
2023-03-02T07:22:45.998Z,29.20
2023-03-02T07:25:12.813Z,29.53
2023-03-02T07:27:40.034Z,29.87
2023-03-02T07:30:07.350Z,28.77
2023-03-02T07:32:33.988Z,29.97
2023-03-02T07:37:31.841Z,27.20
2023-03-02T07:40:00.564Z,23.87
2023-03-02T07:42:27.270Z,27.37
2023-03-02T07:44:54.641Z,29.03
2023-03-02T07:47:21.934Z,23.50
2023-03-02T07:49:48.456Z,29.43
2023-03-02T07:52:15.247Z,25.83
2023-03-02T07:54:41.896Z,25.40
2023-03-02T07:57:08.569Z,24.37
2023-03-02T07:59:35.163Z,27.53
2023-03-02T08:02:01.756Z,27.37
2023-03-02T08:12:12.801Z,20.40
2023-03-02T08:14:39.418Z,22.27
2023-03-02T08:17:08.306Z,23.40
2023-03-02T08:19:34.917Z,23.87
2023-03-02T08:22:02.313Z,22.23
2023-03-02T08:24:28.903Z,19.10
2023-03-02T08:26:56.028Z,20.57
2023-03-02T08:29:24.630Z,19.03
2023-03-02T08:31:51.289Z,19.30
2023-03-02T08:36:50.293Z,20.90
2023-03-02T08:39:16.907Z,18.30
2023-03-02T08:41:43.452Z,23.80
2023-03-02T08:44:10.505Z,19.90
2023-03-02T08:46:37.042Z,21.43
2023-03-02T08:49:03.615Z,18.50
2023-03-02T08:51:30.246Z,20.13
2023-03-02T08:56:31.145Z,17.70
2023-03-02T08:59:03.890Z,19.50
2023-03-02T09:04:11.486Z,19.40
2023-03-02T09:06:41.502Z,18.37
2023-03-02T09:09:09.703Z,21.23
2023-03-02T09:11:36.725Z,18.20
2023-03-02T09:14:03.831Z,21.27
2023-03-02T09:16:30.471Z,17.07
2023-03-02T09:18:57.086Z,17.90
2023-03-02T09:21:25.410Z,24.33
2023-03-02T09:23:58.217Z,17.90
2023-03-02T09:26:26.653Z,18.53
2023-03-02T09:28:53.350Z,20.47
2023-03-02T09:31:20.041Z,19.70
2023-03-02T09:33:46.697Z,17.13
2023-03-02T09:36:22.602Z,21.50
2023-03-02T09:38:49.232Z,18.27
2023-03-02T09:41:39.348Z,16.03
2023-03-02T09:44:22.994Z,19.10
2023-03-02T09:49:48.153Z,17.83
2023-03-02T09:52:40.492Z,18.60
2023-03-02T09:55:19.738Z,16.37
2023-03-02T09:57:47.234Z,18.13
2023-03-02T10:00:20.380Z,22.17
2023-03-02T10:02:54.170Z,17.53
2023-03-02T10:05:24.605Z,16.73
2023-03-02T10:07:51.716Z,21.77
2023-03-02T10:10:18.262Z,19.67
2023-03-02T10:13:15.706Z,19.43
2023-03-02T10:15:47.966Z,18.03
2023-03-02T10:18:29.645Z,17.90
2023-03-02T10:21:33.930Z,16.83
2023-03-02T10:24:34.224Z,23.43
2023-03-02T10:27:19.165Z,16.70
2023-03-02T10:29:55.003Z,15.97
2023-03-02T10:32:24.777Z,18.77
2023-03-02T10:34:53.340Z,17.67
2023-03-02T10:37:25.440Z,20.33
2023-03-02T10:39:52.911Z,16.53
2023-03-02T10:42:24.511Z,14.90
2023-03-02T10:45:00.428Z,19.10
2023-03-02T10:47:29.315Z,18.10
2023-03-02T10:49:57.717Z,14.13
2023-03-02T10:52:27.269Z,17.13
2023-03-02T10:55:13.911Z,15.40
2023-03-02T10:57:45.031Z,18.70
2023-03-02T11:00:17.819Z,13.23
2023-03-02T11:02:54.394Z,16.30
2023-03-02T11:05:28.068Z,16.20
2023-03-02T11:07:56.009Z,19.13
2023-03-02T11:10:25.903Z,17.57
2023-03-02T11:12:54.126Z,18.70
2023-03-02T11:15:32.466Z,15.73
2023-03-02T11:18:09.943Z,16.93
2023-03-02T11:20:42.208Z,16.83
2023-03-02T11:26:26.955Z,15.37
2023-03-02T11:29:11.563Z,18.13
2023-03-02T11:31:47.667Z,15.37
2023-03-02T11:34:20.443Z,15.57
2023-03-02T11:40:11.970Z,14.43
2023-03-02T11:42:41.236Z,15.57
2023-03-02T11:45:13.548Z,18.97
2023-03-02T11:48:00.993Z,18.97
2023-03-02T11:50:31.115Z,16.87
2023-03-02T11:53:00.234Z,15.23
2023-03-02T11:55:31.661Z,15.87
2023-03-02T12:00:49.714Z,17.07
2023-03-02T12:03:16.165Z,13.77
2023-03-02T12:06:07.784Z,15.37
2023-03-02T12:08:50.038Z,14.50
2023-03-02T12:11:16.534Z,14.77
2023-03-02T12:13:45.604Z,15.67
2023-03-02T12:16:33.987Z,18.33
2023-03-02T12:19:18.066Z,15.93
2023-03-02T12:21:57.801Z,20.13
2023-03-02T12:24:27.632Z,15.83
2023-03-02T12:27:25.684Z,14.50
2023-03-02T12:30:15.796Z,14.43
2023-03-02T12:32:58.352Z,13.23
2023-03-02T12:35:25.784Z,13.57
2023-03-02T12:40:39.759Z,15.53
2023-03-02T12:43:16.795Z,19.40
2023-03-02T12:46:04.475Z,15.57
2023-03-02T12:48:54.760Z,12.70
2023-03-02T12:54:07.577Z,13.90
2023-03-02T12:56:34.754Z,13.10
2023-03-02T12:59:01.489Z,12.97
2023-03-02T13:01:30.790Z,14.93
2023-03-02T13:06:38.602Z,12.70
2023-03-02T13:09:05.288Z,13.70
2023-03-02T13:11:36.931Z,18.83
2023-03-02T13:14:20.454Z,15.37
2023-03-02T13:17:04.431Z,17.03
2023-03-02T13:19:32.325Z,13.00
2023-03-02T13:24:56.121Z,12.53
2023-03-02T13:27:24.318Z,14.67
2023-03-02T13:29:55.791Z,14.10
2023-03-02T13:32:26.584Z,13.80
2023-03-02T13:34:57.484Z,17.00
2023-03-02T13:37:43.694Z,15.10
2023-03-02T13:40:22.601Z,12.97
2023-03-02T13:42:49.307Z,20.60
2023-03-02T13:45:22.245Z,14.20
2023-03-02T13:47:49.103Z,18.33
2023-03-02T13:50:27.436Z,17.33
2023-03-02T13:53:00.635Z,15.23
2023-03-02T13:55:27.695Z,18.37
2023-03-02T13:57:55.822Z,16.23
2023-03-02T14:00:27.463Z,13.87
2023-03-02T14:02:53.970Z,12.00
2023-03-02T14:05:24.067Z,16.13
2023-03-02T14:10:22.190Z,17.00
2023-03-02T14:12:56.303Z,16.53
2023-03-02T14:15:23.319Z,16.67
2023-03-02T14:17:49.957Z,16.70
2023-03-02T14:20:19.635Z,13.27
2023-03-02T14:22:47.379Z,17.40
2023-03-02T14:25:14.844Z,15.07
2023-03-02T14:27:42.462Z,17.07
2023-03-02T14:30:19.114Z,18.23
2023-03-02T14:32:46.012Z,16.57
2023-03-02T14:37:48.346Z,15.37
2023-03-02T14:42:56.904Z,18.27
2023-03-02T14:45:24.118Z,16.30
2023-03-02T14:47:50.657Z,17.03
2023-03-02T14:50:17.435Z,14.63
2023-03-02T14:52:55.015Z,20.77
2023-03-02T14:55:29.607Z,18.53
2023-03-02T14:58:04.070Z,14.03
2023-03-02T15:00:30.817Z,17.70
2023-03-02T15:02:59.206Z,18.60
2023-03-02T15:05:25.846Z,20.53
2023-03-02T15:07:53.757Z,17.07
2023-03-02T15:10:22.277Z,16.83
2023-03-02T15:12:48.898Z,14.43
2023-03-02T15:15:15.592Z,13.17
2023-03-02T15:17:42.369Z,14.63
2023-03-02T15:20:14.294Z,14.23
2023-03-02T15:22:40.811Z,14.70
2023-03-02T15:25:08.235Z,17.13
2023-03-02T15:27:34.871Z,13.83
2023-03-02T15:30:01.417Z,17.57
2023-03-02T15:32:28.051Z,14.73
2023-03-02T15:34:54.591Z,17.17
2023-03-02T15:37:21.194Z,15.40
2023-03-02T15:39:53.313Z,14.60
2023-03-02T15:42:19.863Z,12.43
2023-03-02T15:44:46.397Z,14.97
2023-03-02T15:47:13.029Z,15.70
2023-03-02T15:49:39.871Z,14.13
2023-03-02T15:52:06.484Z,17.17
2023-03-02T15:54:33.656Z,15.33
2023-03-02T15:57:00.250Z,18.13
2023-03-02T15:59:29.878Z,25.37
2023-03-02T16:01:59.947Z,18.63
2023-03-02T16:04:27.276Z,16.63
2023-03-02T16:06:55.004Z,17.63
2023-03-02T16:09:22.637Z,14.60
2023-03-02T16:11:49.923Z,18.17
2023-03-02T16:16:48.307Z,16.80
2023-03-02T16:21:51.074Z,19.13
2023-03-02T16:24:17.690Z,16.50
2023-03-02T16:26:45.066Z,13.60
2023-03-02T16:29:13.144Z,15.77
2023-03-02T16:34:14.575Z,16.90
2023-03-02T16:36:42.261Z,19.17
2023-03-02T16:41:43.513Z,17.27
2023-03-02T16:44:11.739Z,16.97
2023-03-02T16:46:40.094Z,17.77
2023-03-02T16:49:07.004Z,16.57
2023-03-02T16:51:33.568Z,16.00
2023-03-02T16:54:00.102Z,17.33
2023-03-02T16:56:26.750Z,17.40
2023-03-02T17:01:24.884Z,16.07
2023-03-02T17:03:52.128Z,16.87
2023-03-02T17:11:32.013Z,17.90
2023-03-02T17:13:58.796Z,18.67
2023-03-02T17:16:25.485Z,19.63
2023-03-02T17:18:52.135Z,22.30
2023-03-02T17:21:18.872Z,21.43
2023-03-02T17:23:48.156Z,17.27
2023-03-02T17:28:54.498Z,24.60
2023-03-02T17:31:21.334Z,21.40
2023-03-02T17:33:48.014Z,18.90
2023-03-02T17:36:15.924Z,19.20
2023-03-02T17:38:42.631Z,19.80
2023-03-02T17:41:11.055Z,20.57
2023-03-02T17:43:39.697Z,24.27
2023-03-02T17:46:11.097Z,21.63
2023-03-02T17:48:37.764Z,20.10
2023-03-02T17:51:04.486Z,20.33
2023-03-02T17:53:31.099Z,21.53
2023-03-02T17:55:57.644Z,19.83
2023-03-02T18:00:56.785Z,20.23
2023-03-02T18:05:55.744Z,23.00
2023-03-02T18:08:22.817Z,18.50
2023-03-02T18:10:50.240Z,18.77
2023-03-02T18:13:17.454Z,42.20
2023-03-02T18:15:44.440Z,21.57
2023-03-02T18:18:12.728Z,28.67
2023-03-02T18:20:39.293Z,23.20
2023-03-02T18:23:05.822Z,26.17
2023-03-02T18:28:09.520Z,36.73
2023-03-02T18:30:36.130Z,111.50
2023-03-02T18:33:02.718Z,70.23
2023-03-02T18:35:29.402Z,22.67
2023-03-02T18:37:55.992Z,24.87
2023-03-02T18:40:22.539Z,23.63
2023-03-02T18:42:49.197Z,21.67
2023-03-02T18:45:28.060Z,18.17
2023-03-02T18:47:55.324Z,19.43
2023-03-02T18:50:22.685Z,24.97
2023-03-02T18:52:53.049Z,20.87
2023-03-02T18:55:24.512Z,28.57
2023-03-02T18:57:53.952Z,24.50
2023-03-02T19:00:27.363Z,22.50
2023-03-02T19:02:54.792Z,25.60
2023-03-02T19:05:21.456Z,22.77
2023-03-02T19:07:48.086Z,26.17
2023-03-02T19:10:15.816Z,23.63
2023-03-02T19:12:42.390Z,32.23
2023-03-02T19:15:13.163Z,22.77
2023-03-02T19:17:42.681Z,26.73
2023-03-02T19:20:15.194Z,22.60
2023-03-02T19:22:41.740Z,19.73
2023-03-02T19:25:08.835Z,25.40
2023-03-02T19:30:12.122Z,29.37
2023-03-02T19:32:38.792Z,36.37
2023-03-02T19:35:05.940Z,25.57
2023-03-02T19:37:33.513Z,32.00
2023-03-02T19:40:00.060Z,25.77
2023-03-02T19:42:26.768Z,25.73
2023-03-02T19:44:53.305Z,30.03
2023-03-02T19:47:19.873Z,28.77
2023-03-02T19:49:46.377Z,26.43
2023-03-02T19:52:12.881Z,26.77
2023-03-02T19:54:39.411Z,25.43
2023-03-02T19:57:07.867Z,28.63
2023-03-02T19:59:36.632Z,26.60
2023-03-02T20:02:03.348Z,27.87
2023-03-02T20:04:29.911Z,28.63
2023-03-02T20:06:56.871Z,22.87
2023-03-02T20:09:24.327Z,26.73
2023-03-02T20:11:51.098Z,25.47
2023-03-02T20:14:32.889Z,22.43
2023-03-02T20:17:00.266Z,26.83
2023-03-02T20:19:26.862Z,26.67
2023-03-02T20:21:53.406Z,25.47
2023-03-02T20:24:20.165Z,25.37
2023-03-02T20:26:47.001Z,24.40
2023-03-02T20:29:14.204Z,27.60
2023-03-02T20:31:41.032Z,27.60
2023-03-02T20:34:12.458Z,21.83
2023-03-02T20:36:39.117Z,27.80
2023-03-02T20:39:31.500Z,25.03
2023-03-02T20:41:59.005Z,29.87
2023-03-02T20:44:26.309Z,27.90
2023-03-02T20:46:56.096Z,26.47
2023-03-02T20:52:03.247Z,26.83
2023-03-02T20:54:34.036Z,25.40
2023-03-02T20:57:00.645Z,25.40
2023-03-02T20:59:27.946Z,25.67
2023-03-02T21:04:33.295Z,30.97
2023-03-02T21:07:00.129Z,33.23
2023-03-02T21:09:26.683Z,31.60
2023-03-02T21:14:32.566Z,28.33
2023-03-02T21:17:00.339Z,36.40
2023-03-02T21:19:29.616Z,29.53
2023-03-02T21:21:57.213Z,31.70
2023-03-02T21:24:23.833Z,55.80
2023-03-02T21:26:52.346Z,42.10
2023-03-02T21:29:21.885Z,26.90
2023-03-02T21:31:48.639Z,28.80
2023-03-02T21:34:16.475Z,30.97
2023-03-02T21:36:43.585Z,32.33
2023-03-02T21:39:11.909Z,29.03
2023-03-02T21:44:16.812Z,27.20
2023-03-02T21:46:43.558Z,27.20
2023-03-02T21:49:11.460Z,27.87
2023-03-02T21:51:38.021Z,27.43
2023-03-02T21:54:04.785Z,23.97
2023-03-02T21:56:31.300Z,26.70
2023-03-02T21:58:58.013Z,28.37
2023-03-02T22:01:26.516Z,27.00
2023-03-02T22:03:53.511Z,25.03
2023-03-02T22:06:25.705Z,25.47
2023-03-02T22:08:52.990Z,28.60
2023-03-02T22:11:28.492Z,27.37
2023-03-02T22:13:58.508Z,28.10
2023-03-02T22:16:28.241Z,27.00
2023-03-02T22:18:59.778Z,27.23
2023-03-02T22:21:38.248Z,25.93
2023-03-02T22:24:13.840Z,29.67
2023-03-02T22:26:43.890Z,29.43
2023-03-02T22:29:39.513Z,30.40
2023-03-02T22:32:17.158Z,28.00
2023-03-02T22:34:45.437Z,24.27
2023-03-02T22:37:14.900Z,28.07
2023-03-02T22:39:42.392Z,26.30
2023-03-02T22:42:18.545Z,29.63
2023-03-02T22:45:10.165Z,32.37
2023-03-02T22:47:36.680Z,27.00
2023-03-02T22:50:18.824Z,30.10
2023-03-02T22:52:45.416Z,28.80
2023-03-02T22:55:35.380Z,26.77
2023-03-02T22:58:45.174Z,29.73
2023-03-02T23:01:25.064Z,26.43
2023-03-02T23:04:02.271Z,29.47
2023-03-02T23:09:06.364Z,25.87
2023-03-02T23:11:38.434Z,26.97
2023-03-02T23:14:27.405Z,26.73
2023-03-02T23:17:01.455Z,27.63
2023-03-02T23:19:30.260Z,29.70
2023-03-02T23:21:58.066Z,29.87
2023-03-02T23:24:25.341Z,26.10
2023-03-02T23:26:53.276Z,27.97
2023-03-02T23:29:20.540Z,26.93
2023-03-02T23:31:47.798Z,29.67
2023-03-02T23:34:14.691Z,26.10
2023-03-02T23:36:41.477Z,27.97
2023-03-02T23:39:09.786Z,26.20
2023-03-02T23:41:37.208Z,27.30
2023-03-02T23:44:04.886Z,28.27
2023-03-02T23:46:31.936Z,27.30
2023-03-02T23:48:58.649Z,27.43
2023-03-02T23:51:26.243Z,30.53
2023-03-02T23:53:54.129Z,27.20
2023-03-02T23:56:21.406Z,27.07
2023-03-02T23:58:48.209Z,25.03
